Latest Weather Observations for Point Wilson

IDV60901

Issued at 3:01 am EDT Monday 20 November 2017 (issued every 10 minutes, with the page automatically refreshed every 10 minutes)

About weather observations | Map of Melbourne area stations | Latest observations for Melbourne area | Other Formats
Station Details ID: 087166 Name: POINT WILSON Lat: -38.10 Lon: 144.54 Height: 18.0 m
Data from the previous 72 hours. | See also: Recent months for locations in Victoria
Date/Time
EDT
Temp
°C
App
Temp
°C
Dew
Point
°C
Rel
Hum
%
Delta-T
°C
Wind Press
QNH
hPa
Press
MSL
hPa
Rain since
9am
mm
Dir  Spd
km/h
Gust
km/h
Spd
kts
Gust
kts
20/03:00am - - - - - SSW 15 17 8 9 - - -
20/02:30am - - - - - S 15 17 8 9 - - -
20/02:00am - - - - - S 17 19 9 10 - - -
20/01:30am - - - - - S 20 22 11 12 - - -
20/01:00am - - - - - SSW 15 17 8 9 - - -
20/12:30am - - - - - S 11 13 6 7 - - -
20/12:00am - - - - - SSW 7 7 4 4 - - -
 
Date/Time
EDT
Temp
°C
App
Temp
°C
Dew
Point
°C
Rel
Hum
%
Delta-T
°C
Wind Press
QNH
hPa
Press
MSL
hPa
Rain since
9am
mm
Dir  Spd
km/h
Gust
km/h
Spd
kts
Gust
kts
19/11:30pm - - - - - CALM 0 0 0 0 - - -
19/11:00pm - - - - - E 7 11 4 6 - - -
19/10:30pm - - - - - ESE 4 9 2 5 - - -
19/10:00pm - - - - - ESE 11 13 6 7 - - -
19/09:30pm - - - - - ESE 19 20 10 11 - - -
19/09:00pm - - - - - ESE 19 22 10 12 - - -
19/08:30pm - - - - - ESE 15 19 8 10 - - -
19/08:00pm - - - - - ESE 17 20 9 11 - - -
19/07:30pm - - - - - ESE 22 26 12 14 - - -
19/07:00pm - - - - - ESE 30 35 16 19 - - -
19/06:30pm - - - - - SE 30 35 16 19 - - -
19/06:00pm - - - - - SE 32 35 17 19 - - -
19/05:30pm - - - - - SE 32 37 17 20 - - -
19/05:00pm - - - - - SE 30 32 16 17 - - -
19/04:30pm - - - - - SE 32 35 17 19 - - -
19/04:00pm - - - - - SE 32 35 17 19 - - -
19/03:30pm - - - - - ESE 22 24 12 13 - - -
19/03:00pm - - - - - ESE 20 22 11 12 - - -
19/02:30pm - - - - - ESE 24 26 13 14 - - -
19/02:00pm - - - - - ESE 24 28 13 15 - - -
19/01:30pm - - - - - ESE 24 26 13 14 - - -
19/01:00pm - - - - - ESE 24 26 13 14 - - -
19/12:30pm - - - - - E 22 24 12 13 - - -
19/12:00pm - - - - - E 24 28 13 15 - - -
19/11:30am - - - - - E 24 28 13 15 - - -
19/11:00am - - - - - E 24 26 13 14 - - -
19/10:30am - - - - - E 20 24 11 13 - - -
19/10:00am - - - - - ESE 15 19 8 10 - - -
19/09:30am - - - - - ENE 15 17 8 9 - - -
19/09:00am - - - - - ENE 19 20 10 11 - - -
19/08:30am - - - - - ENE 15 19 8 10 - - -
19/08:00am - - - - - ENE 17 19 9 10 - - -
19/07:30am - - - - - E 13 15 7 8 - - -
19/07:00am - - - - - ENE 11 13 6 7 - - -
19/06:30am - - - - - E 9 13 5 7 - - -
19/06:00am - - - - - E 4 9 2 5 - - -
19/05:30am - - - - - CALM 0 2 0 1 - - -
19/05:00am - - - - - CALM 0 0 0 0 - - -
19/04:30am - - - - - SSW 7 9 4 5 - - -
19/04:00am - - - - - SSW 11 13 6 7 - - -
19/03:30am - - - - - SSW 13 15 7 8 - - -
19/03:00am - - - - - SSW 7 9 4 5 - - -
19/02:30am - - - - - SW 7 9 4 5 - - -
19/02:00am - - - - - WSW 9 11 5 6 - - -
19/01:30am - - - - - CALM 0 0 0 0 - - -
19/01:00am - - - - - SSW 9 11 5 6 - - -
19/12:30am - - - - - SSW 9 11 5 6 - - -
19/12:00am - - - - - SSW 13 15 7 8 - - -
 
Date/Time
EDT
Temp
°C
App
Temp
°C
Dew
Point
°C
Rel
Hum
%
Delta-T
°C
Wind Press
QNH
hPa
Press
MSL
hPa
Rain since
9am
mm
Dir  Spd
km/h
Gust
km/h
Spd
kts
Gust
kts
18/11:30pm - - - - - SSW 17 17 9 9 - - -
18/11:00pm - - - - - SSW 13 15 7 8 - - -
18/10:30pm - - - - - SW 13 15 7 8 - - -
18/10:00pm - - - - - SSW 9 17 5 9 - - -
18/09:30pm - - - - - SSW 7 7 4 4 - - -
18/09:00pm - - - - - SSW 7 9 4 5 - - -
18/08:30pm - - - - - SW 9 11 5 6 - - -
18/08:00pm - - - - - CALM 0 0 0 0 - - -
18/07:30pm - - - - - NNE 17 22 9 12 - - -
18/07:00pm - - - - - ENE 19 22 10 12 - - -
18/06:30pm - - - - - ENE 24 30 13 16 - - -
18/06:06pm - - - - - E 39 57 21 31 - - -
18/06:00pm - - - - - E 43 57 23 31 - - -
18/05:54pm - - - - - ESE 33 48 18 26 - - -
18/05:30pm - - - - - SE 37 44 20 24 - - -
18/05:00pm - - - - - SE 33 37 18 20 - - -
18/04:30pm - - - - - SSE 28 33 15 18 - - -
18/04:00pm - - - - - S 26 33 14 18 - - -
18/03:30pm - - - - - SSE 24 28 13 15 - - -
18/03:00pm - - - - - SE 15 19 8 10 - - -
18/02:30pm - - - - - ESE 20 22 11 12 - - -
18/02:00pm - - - - - ESE 20 24 11 13 - - -
18/01:30pm - - - - - ESE 19 20 10 11 - - -
18/01:00pm - - - - - ESE 19 20 10 11 - - -
18/12:30pm - - - - - ESE 20 22 11 12 - - -
18/12:00pm - - - - - E 17 20 9 11 - - -
18/11:30am - - - - - E 15 19 8 10 - - -
18/11:00am - - - - - ENE 13 17 7 9 - - -
18/10:30am - - - - - E 17 17 9 9 - - -
18/10:00am - - - - - ENE 9 13 5 7 - - -
18/09:30am - - - - - E 7 9 4 5 - - -
18/09:00am - - - - - NNE 15 17 8 9 - - -
18/08:30am - - - - - NNE 13 15 7 8 - - -
18/08:00am - - - - - E 6 15 3 8 - - -
18/07:30am - - - - - CALM 0 0 0 0 - - -
18/07:00am - - - - - CALM 0 0 0 0 - - -
18/06:30am - - - - - SSW 9 11 5 6 - - -
18/06:00am - - - - - SSW 9 11 5 6 - - -
18/05:30am - - - - - WSW 11 13 6 7 - - -
18/05:00am - - - - - CALM 0 0 0 0 - - -
18/04:30am - - - - - CALM 0 0 0 0 - - -
18/04:00am - - - - - S 9 11 5 6 - - -
18/03:30am - - - - - S 17 19 9 10 - - -
18/03:00am - - - - - SSW 17 19 9 10 - - -
18/02:30am - - - - - SSW 13 15 7 8 - - -
18/02:00am - - - - - SSW 17 19 9 10 - - -
18/01:30am - - - - - SSW 11 15 6 8 - - -
18/01:00am - - - - - SSW 13 15 7 8 - - -
18/12:30am - - - - - SSW 15 17 8 9 - - -
18/12:00am - - - - - S 20 24 11 13 - - -
 
Date/Time
EDT
Temp
°C
App
Temp
°C
Dew
Point
°C
Rel
Hum
%
Delta-T
°C
Wind Press
QNH
hPa
Press
MSL
hPa
Rain since
9am
mm
Dir  Spd
km/h
Gust
km/h
Spd
kts
Gust
kts
17/11:30pm - - - - - S 17 20 9 11 - - -
17/11:00pm - - - - - SSW 13 17 7 9 - - -
17/10:30pm - - - - - SSW 11 15 6 8 - - -
17/10:00pm - - - - - CALM 0 0 0 0 - - -
17/09:30pm - - - - - E 9 11 5 6 - - -
17/09:00pm - - - - - E 17 20 9 11 - - -
17/08:30pm - - - - - ESE 19 22 10 12 - - -
17/08:00pm - - - - - E 20 26 11 14 - - -
17/07:30pm - - - - - E 22 28 12 15 - - -
17/07:00pm - - - - - E 22 24 12 13 - - -
17/06:30pm - - - - - E 30 37 16 20 - - -
17/06:00pm - - - - - ESE 35 39 19 21 - - -
17/05:30pm - - - - - ESE 33 37 18 20 - - -
17/05:00pm - - - - - ESE 24 32 13 17 - - -
17/04:30pm - - - - - SE 20 26 11 14 - - -
17/04:00pm - - - - - SE 17 26 9 14 - - -
17/03:30pm - - - - - SE 19 20 10 11 - - -
17/03:00pm - - - - - SE 20 24 11 13 - - -
17/02:30pm - - - - - SE 15 17 8 9 - - -
17/02:00pm - - - - - SE 15 17 8 9 - - -
17/01:30pm - - - - - SE 17 19 9 10 - - -
17/01:00pm - - - - - E 13 17 7 9 - - -
17/12:30pm - - - - - NNE 17 20 9 11 - - -
17/12:15pm - - - - - NE 28 41 15 22 - - -
17/12:00pm - - - - - E 19 20 10 11 - - -
17/11:30am - - - - - E 20 22 11 12 - - -
17/11:00am - - - - - E 17 19 9 10 - - -
17/10:30am - - - - - E 15 17 8 9 - - -
17/10:00am - - - - - E 15 19 8 10 - - -
17/09:30am - - - - - E 15 17 8 9 - - -
17/09:00am - - - - - E 17 19 9 10 - - -
17/08:30am - - - - - E 13 15 7 8 - - -
17/08:00am - - - - - E 17 20 9 11 - - -
17/07:30am - - - - - E 15 17 8 9 - - -
17/07:00am - - - - - E 13 15 7 8 - - -
17/06:30am - - - - - E 15 20 8 11 - - -
17/06:00am - - - - - ENE 19 20 10 11 - - -
17/05:30am - - - - - ENE 17 19 9 10 - - -
17/05:00am - - - - - E 15 17 8 9 - - -
17/04:30am - - - - - E 17 20 9 11 - - -
17/04:00am - - - - - ESE 19 20 10 11 - - -
17/03:30am - - - - - ESE 17 19 9 10 - - -

Latest Capital City Observations: Canberra | Sydney | Melbourne | Brisbane | Adelaide | Perth | Hobart | Darwin

Other Formats:

Comma delimited format used in spreadsheet applications
http://www.bom.gov.au/fwo/IDV60901/IDV60901.94847.axf

JavaScript Object Notation format (JSON) in row-major order
http://www.bom.gov.au/fwo/IDV60901/IDV60901.94847.json